Latest Coastal Weather Observations for Darwin Harbour

IDD60701

Issued at 4:11 pm CST Thursday 29 September 2016 (issued every 10 minutes, with the page automatically refreshed every 10 minutes)

About coastal observations | Map of coastal stations | Coastal observations for NT | Marine services | Other Formats
Station Details ID: 014072 Name: DARWIN NTC AWS Lat: -12.47 Lon: 130.85 Height: 0.0 m
Data from the previous 72 hours. | See also: Recent months for locations in Northern Territory
Date/Time
CST
Temp
°C
Wind Pressure Rain since
9am
mm
Weather Cloud Vis
km
Sea
Height
m
Swell
Dir  Spd
kts
Gust
kts
hPa Trend Height
m
Period
s
Dir
29/04:00pm 30.8 W 11 14 1005.7 - - - - - - - - -
29/03:30pm 29.7 WNW 10 15 1005.4 - - - - - - - - -
29/03:00pm 29.1 W 13 18 1005.7 - - - - - - - - -
29/02:30pm 30.2 WNW 9 13 1006.1 - - - - - - - - -
29/02:00pm 30.4 WNW 11 13 1006.5 - - - - - - - - -
29/01:30pm 32.3 WNW 7 13 1007.1 - - - - - - - - -
29/01:00pm 31.7 W 4 6 1007.7 - - - - - - - - -
29/12:30pm 31.5 W 2 3 1008.2 - - - - - - - - -
29/12:00pm 31.6 S 1 2 1008.7 - - - - - - - - -
29/11:30am 31.1 SSW 2 3 1009.2 - - - - - - - - -
29/11:00am 31.0 SE 2 4 1009.6 - - - - - - - - -
29/10:30am 30.1 SSW 3 4 1009.9 - - - - - - - - -
29/10:00am 29.9 SW 3 6 1009.9 - - - - - - - - -
29/09:30am 29.2 SW 4 5 1009.9 - - - - - - - - -
29/09:00am 29.0 WSW 4 5 1009.6 - - - - - - - - -
29/08:30am 28.9 WSW 5 6 1009.4 - - - - - - - - -
29/08:00am 28.7 WSW 7 9 1009.0 - - - - - - - - -
29/07:30am 28.6 WSW 6 8 1008.6 - - - - - - - - -
29/07:00am 28.8 NNW 2 4 1008.1 - - - - - - - - -
29/06:30am 28.7 NW 2 3 1007.8 - - - - - - - - -
29/06:00am 28.3 N 1 3 1007.4 - - - - - - - - -
29/05:30am 28.1 NE 2 4 1007.2 - - - - - - - - -
29/05:00am 28.5 N 2 4 1007.0 - - - - - - - - -
29/04:30am 28.6 W 2 3 1007.0 - - - - - - - - -
29/04:00am 28.5 NNW 2 4 1006.8 - - - - - - - - -
29/03:30am 28.5 W 1 2 1007.0 - - - - - - - - -
29/03:00am 28.5 NW 2 3 1007.1 - - - - - - - - -
29/02:30am 28.5 NW 1 3 1007.3 - - - - - - - - -
29/02:00am 28.6 WNW 2 3 1007.9 - - - - - - - - -
29/01:30am 28.9 W 2 3 1008.3 - - - - - - - - -
29/01:00am 28.9 WSW 3 5 1008.8 - - - - - - - - -
29/12:30am 28.9 WSW 3 5 1009.1 - - - - - - - - -
29/12:00am 28.9 WSW 3 5 1009.2 - - - - - - - - -
 
Date/Time
CST
Temp
°C
Wind Pressure Rain since
9am
mm
Weather Cloud Vis
km
Sea
Height
m
Swell
Dir  Spd
kts
Gust
kts
hPa Trend Height
m
Period
s
Dir
28/11:30pm 28.9 WSW 3 4 1009.5 - - - - - - - - -
28/11:00pm 29.0 WSW 4 5 1009.4 - - - - - - - - -
28/10:30pm 29.1 SW 6 7 1009.5 - - - - - - - - -
28/10:00pm 29.4 SW 6 8 1009.5 - - - - - - - - -
28/09:30pm 29.5 WSW 6 7 1009.2 - - - - - - - - -
28/09:00pm 29.6 WSW 7 9 1009.0 - - - - - - - - -
28/08:30pm 29.8 WSW 6 8 1008.7 - - - - - - - - -
28/08:00pm 30.4 WSW 7 9 1008.3 - - - - - - - - -
28/07:30pm 30.5 W 7 9 1008.0 - - - - - - - - -
28/07:00pm 31.0 W 7 8 1007.7 - - - - - - - - -
28/06:30pm 31.8 NW 3 5 1007.4 - - - - - - - - -
28/06:00pm 32.0 WNW 2 4 1007.1 - - - - - - - - -
28/05:30pm 32.4 WNW 4 6 1006.7 - - - - - - - - -
28/05:00pm 32.8 WNW 5 7 1006.8 - - - - - - - - -
28/04:30pm 31.9 WNW 5 6 1006.9 - - - - - - - - -
28/04:00pm 31.4 W 5 7 1007.0 - - - - - - - - -
28/03:30pm 31.1 W 6 7 1007.3 - - - - - - - - -
28/03:00pm 30.6 WNW 8 10 1007.5 - - - - - - - - -
28/02:30pm 31.2 WNW 9 12 1008.1 - - - - - - - - -
28/02:00pm 30.7 WNW 11 15 1008.6 - - - - - - - - -
28/01:30pm 31.3 NW 7 11 1009.2 - - - - - - - - -
28/01:00pm 30.3 WNW 9 14 1009.8 - - - - - - - - -
28/12:30pm 29.7 WNW 9 13 1010.2 - - - - - - - - -
28/12:00pm 29.4 WNW 9 12 1010.5 - - - - - - - - -
28/11:30am 29.6 WNW 8 14 1010.8 - - - - - - - - -
28/11:00am 29.2 NW 8 12 1011.0 - - - - - - - - -
28/10:30am 29.8 NW 6 11 1011.4 - - - - - - - - -
28/10:00am 29.3 NNW 7 11 1011.5 - - - - - - - - -
28/09:30am 29.5 NNW 3 8 1011.4 - - - - - - - - -
28/09:00am 29.8 ENE 4 6 1011.2 - - - - - - - - -
28/08:30am 29.3 ENE 4 7 1011.0 - - - - - - - - -
28/08:00am 28.7 ENE 4 6 1010.7 - - - - - - - - -
28/07:30am 28.3 ENE 2 5 1010.3 - - - - - - - - -
28/07:00am 28.7 NW 1 2 1009.8 - - - - - - - - -
28/06:30am 28.3 SW 3 4 1009.1 - - - - - - - - -
28/06:00am 28.3 WSW 3 4 1008.7 - - - - - - - - -
28/05:30am 28.5 WSW 3 5 1008.5 - - - - - - - - -
28/05:00am 28.5 W 4 5 1008.2 - - - - - - - - -
28/04:30am 28.4 W 4 5 1008.2 - - - - - - - - -
28/04:00am 28.5 WSW 4 5 1008.2 - - - - - - - - -
28/03:30am 28.6 W 5 8 1008.2 - - - - - - - - -
28/03:00am 28.7 W 6 7 1008.2 - - - - - - - - -
28/02:30am 28.6 W 5 7 1008.3 - - - - - - - - -
28/02:00am 28.8 W 5 7 1008.5 - - - - - - - - -
28/01:30am 28.9 W 6 7 1008.8 - - - - - - - - -
28/01:00am 28.8 W 5 7 1009.0 - - - - - - - - -
28/12:30am 28.9 W 5 7 1009.4 - - - - - - - - -
28/12:00am 29.1 W 5 7 1009.7 - - - - - - - - -
 
Date/Time
CST
Temp
°C
Wind Pressure Rain since
9am
mm
Weather Cloud Vis
km
Sea
Height
m
Swell
Dir  Spd
kts
Gust
kts
hPa Trend Height
m
Period
s
Dir
27/11:30pm 29.1 W 6 7 1009.7 - - - - - - - - -
27/11:00pm 29.2 W 6 7 1009.9 - - - - - - - - -
27/10:30pm 29.4 W 5 7 1009.9 - - - - - - - - -
27/10:00pm 29.3 W 6 8 1009.7 - - - - - - - - -
27/09:30pm 29.4 W 6 9 1009.7 - - - - - - - - -
27/09:00pm 29.4 W 7 11 1009.5 - - - - - - - - -
27/08:30pm 29.7 W 7 11 1009.2 - - - - - - - - -
27/08:00pm 30.2 WNW 6 9 1008.9 - - - - - - - - -
27/07:30pm 30.4 WNW 5 8 1008.5 - - - - - - - - -
27/07:00pm 30.5 WNW 3 5 1008.1 - - - - - - - - -
27/06:30pm 30.8 NNW 4 7 1007.7 - - - - - - - - -
27/06:00pm 30.8 NW 4 9 1007.4 - - - - - - - - -
27/05:30pm 31.0 NW 4 8 1007.3 - - - - - - - - -
27/05:00pm 31.1 NW 6 9 1007.1 - - - - - - - - -
27/04:30pm 30.9 WNW 8 12 1007.0 - - - - - - - - -
27/04:00pm 31.5 NW 5 12 1006.9 - - - - - - - - -
27/03:30pm 30.8 NW 8 14 1007.3 - - - - - - - - -
27/03:00pm 30.7 WNW 10 15 1007.6 - - - - - - - - -
27/02:30pm 30.6 WNW 11 15 1007.9 - - - - - - - - -
27/02:00pm 30.9 WNW 8 13 1008.2 - - - - - - - - -
27/01:30pm 30.5 WNW 9 13 1008.6 - - - - - - - - -
27/01:00pm 30.5 WNW 7 11 1009.0 - - - - - - - - -
27/12:30pm 30.3 WNW 6 9 1009.7 - - - - - - - - -
27/12:00pm 29.7 WNW 8 11 1010.5 - - - - - - - - -
27/11:30am 29.7 WNW 5 8 1011.0 - - - - - - - - -
27/11:00am 29.9 WNW 5 9 1011.5 - - - - - - - - -
27/10:30am 29.5 WNW 6 9 1011.8 - - - - - - - - -
27/10:00am 29.1 WNW 7 10 1011.9 - - - - - - - - -
27/09:30am 29.2 WNW 4 8 1011.8 - - - - - - - - -
27/09:00am 29.1 NW 6 10 1011.8 - - - - - - - - -
27/08:30am 29.4 NNW 5 9 1011.4 - - - - - - - - -
27/08:00am 28.9 NW 6 9 1011.3 - - - - - - - - -
27/07:30am 28.8 NW 4 7 1011.1 - - - - - - - - -
27/07:00am 28.5 NNW 3 6 1010.8 - - - - - - - - -
27/06:30am 28.6 NNW 4 6 1010.4 - - - - - - - - -
27/06:00am 28.8 NNW 5 8 1010.1 - - - - - - - - -
27/05:30am 28.6 NW 4 7 1009.8 - - - - - - - - -
27/05:00am 28.6 NW 4 7 1009.4 - - - - - - - - -
27/04:30am 28.7 WNW 4 7 1009.0 - - - - - - - - -
27/04:00am 28.7 W 6 8 1008.8 - - - - - - - - -
27/03:30am 28.7 WNW 6 7 1008.7 - - - - - - - - -
27/03:00am 28.7 W 5 7 1008.7 - - - - - - - - -
27/02:30am 28.8 W 5 7 1008.8 - - - - - - - - -
27/02:00am 28.8 W 6 8 1009.0 - - - - - - - - -
27/01:30am 28.9 W 6 7 1009.1 - - - - - - - - -
27/01:00am 28.8 WNW 6 8 1009.4 - - - - - - - - -
27/12:30am 28.9 W 5 7 1009.5 - - - - - - - - -
27/12:00am 29.1 W 6 8 1009.8 - - - - - - - - -
 
Date/Time
CST
Temp
°C
Wind Pressure Rain since
9am
mm
Weather Cloud Vis
km
Sea
Height
m
Swell
Dir  Spd
kts
Gust
kts
hPa Trend Height
m
Period
s
Dir
26/11:30pm 29.1 W 5 7 1010.0 - - - - - - - - -
26/11:00pm 29.3 W 4 7 1010.2 - - - - - - - - -
26/10:30pm 29.3 W 4 6 1010.1 - - - - - - - - -
26/10:00pm 29.3 W 4 6 1010.2 - - - - - - - - -
26/09:30pm 29.4 W 5 8 1010.0 - - - - - - - - -
26/09:00pm 29.6 W 5 7 1009.7 - - - - - - - - -
26/08:30pm 29.7 W 6 8 1009.4 - - - - - - - - -
26/08:00pm 29.9 W 5 9 1009.1 - - - - - - - - -
26/07:30pm 29.9 WNW 6 9 1008.8 - - - - - - - - -
26/07:00pm 30.3 WNW 5 9 1008.4 - - - - - - - - -
26/06:30pm 30.9 NW 5 9 1008.0 - - - - - - - - -
26/06:00pm 31.0 NNW 4 7 1007.7 - - - - - - - - -
26/05:30pm 31.1 N 4 9 1007.3 - - - - - - - - -
26/05:00pm 30.5 N 4 9 1007.2 - - - - - - - - -
26/04:30pm 30.8 N 7 14 1007.0 - - - - - - - - -

Other Formats:

Comma delimited format used in spreadsheet applications
http://www.bom.gov.au/fwo/IDD60701/IDD60701.95122.axf

JavaScript Object Notation format (JSON) in row-major order
http://www.bom.gov.au/fwo/IDD60701/IDD60701.95122.json